createdAt,value
2023-01-31T00:00:50.925Z,0.00
2023-01-31T00:15:51.555Z,0.00
2023-01-31T00:16:51.467Z,0.00
2023-01-31T00:17:51.431Z,0.00
2023-01-31T00:18:51.397Z,0.00
2023-01-31T00:19:51.365Z,0.00
2023-01-31T00:20:51.320Z,0.00
2023-01-31T00:21:51.353Z,0.00
2023-01-31T00:22:51.234Z,0.00
2023-01-31T00:23:51.206Z,0.00
2023-01-31T00:24:51.167Z,0.00
2023-01-31T00:25:51.129Z,0.00
2023-01-31T00:26:51.129Z,0.00
2023-01-31T00:27:51.124Z,0.00
2023-01-31T00:28:51.017Z,0.00
2023-01-31T00:29:50.981Z,0.00
2023-01-31T00:30:51.019Z,0.00
2023-01-31T00:31:51.024Z,0.00
2023-01-31T00:32:50.869Z,0.00
2023-01-31T00:33:50.884Z,0.00
2023-01-31T00:34:50.794Z,0.00
2023-01-31T00:35:50.753Z,0.00
2023-01-31T00:36:50.775Z,0.00
2023-01-31T00:37:50.696Z,0.00
2023-01-31T00:38:50.664Z,0.00
2023-01-31T00:39:50.614Z,0.00
2023-01-31T00:40:50.564Z,0.00
2023-01-31T00:41:50.528Z,0.00
2023-01-31T00:42:50.556Z,0.00
2023-01-31T00:43:50.452Z,0.00
2023-01-31T00:44:50.430Z,0.00
2023-01-31T00:45:50.382Z,0.00
2023-01-31T00:46:50.372Z,0.00
2023-01-31T00:47:50.298Z,0.00
2023-01-31T00:48:50.333Z,0.00
2023-01-31T00:49:50.227Z,0.00
2023-01-31T00:50:50.183Z,0.00
2023-01-31T00:51:50.150Z,0.00
2023-01-31T00:52:50.139Z,0.00
2023-01-31T00:53:50.093Z,0.00
2023-01-31T00:54:50.096Z,0.00
2023-01-31T00:55:49.995Z,0.00
2023-01-31T00:56:49.962Z,0.00
2023-01-31T00:57:49.929Z,0.00
2023-01-31T00:58:49.913Z,0.00
2023-01-31T00:59:49.841Z,0.00
2023-01-31T01:00:49.978Z,0.00
2023-01-31T01:01:49.827Z,0.00
2023-01-31T01:02:49.746Z,0.00
2023-01-31T01:03:49.698Z,0.00
2023-01-31T01:04:49.654Z,0.00
2023-01-31T01:05:49.619Z,0.00
2023-01-31T01:06:49.663Z,0.00
2023-01-31T01:07:49.543Z,0.00
2023-01-31T01:08:49.508Z,0.00
2023-01-31T01:09:49.480Z,0.00
2023-01-31T01:10:49.436Z,0.00
2023-01-31T01:11:49.403Z,0.00
2023-01-31T01:12:49.408Z,0.00
2023-01-31T01:13:49.337Z,0.00
2023-01-31T01:14:49.287Z,0.00
2023-01-31T01:15:49.248Z,0.00
2023-01-31T01:16:49.203Z,0.00
2023-01-31T01:17:49.246Z,0.00
2023-01-31T01:18:49.166Z,0.00
2023-01-31T01:19:49.103Z,0.00
2023-01-31T01:20:49.070Z,0.00
2023-01-31T01:21:49.036Z,0.00
2023-01-31T01:22:48.985Z,0.00
2023-01-31T01:23:49.021Z,0.00
2023-01-31T01:24:48.970Z,0.00
2023-01-31T01:25:48.868Z,0.00
2023-01-31T01:26:48.864Z,0.00
2023-01-31T01:27:48.802Z,0.00
2023-01-31T01:28:48.766Z,0.00
2023-01-31T01:29:48.794Z,0.00
2023-01-31T01:30:48.694Z,0.00
2023-01-31T01:31:48.727Z,0.00
2023-01-31T01:32:48.609Z,0.00
2023-01-31T01:33:48.574Z,0.00
2023-01-31T01:34:48.539Z,0.00
2023-01-31T01:35:48.563Z,0.00
2023-01-31T01:36:48.464Z,0.00
2023-01-31T01:37:48.440Z,0.00
2023-01-31T01:38:48.399Z,0.00
2023-01-31T01:39:48.350Z,0.00
2023-01-31T01:40:48.314Z,0.00
2023-01-31T01:41:48.358Z,0.00
2023-01-31T01:42:48.232Z,0.00
2023-01-31T01:43:48.202Z,0.00
2023-01-31T01:44:48.160Z,0.00
2023-01-31T01:45:48.138Z,0.00
2023-01-31T01:46:48.086Z,0.00
2023-01-31T01:47:48.146Z,0.00
2023-01-31T01:48:48.025Z,0.00
2023-01-31T01:49:47.996Z,0.00
2023-01-31T01:50:47.940Z,0.00
2023-01-31T01:51:47.913Z,0.00
2023-01-31T01:52:47.879Z,0.00
2023-01-31T01:53:47.879Z,0.00
2023-01-31T01:54:47.799Z,0.00
2023-01-31T01:55:47.760Z,0.00
2023-01-31T01:56:47.730Z,0.00
2023-01-31T01:57:47.689Z,0.00
2023-01-31T01:58:47.645Z,0.00
2023-01-31T01:59:47.661Z,0.00
2023-01-31T02:00:47.606Z,0.00
2023-01-31T02:01:47.568Z,0.00
2023-01-31T02:02:47.494Z,0.00
2023-01-31T02:03:47.461Z,0.00
2023-01-31T02:04:47.421Z,0.00
2023-01-31T02:05:47.437Z,0.00
2023-01-31T02:06:47.378Z,0.00
2023-01-31T02:07:47.301Z,0.00
2023-01-31T02:08:47.315Z,0.00
2023-01-31T02:09:47.225Z,0.00
2023-01-31T02:10:47.208Z,0.00
2023-01-31T02:11:47.154Z,0.00
2023-01-31T02:12:47.155Z,0.00
2023-01-31T02:13:47.142Z,0.00
2023-01-31T02:14:47.049Z,0.00
2023-01-31T02:15:47.018Z,0.00
2023-01-31T02:16:46.995Z,0.00
2023-01-31T02:17:46.942Z,0.00
2023-01-31T02:18:46.952Z,0.00
2023-01-31T02:19:46.855Z,0.00
2023-01-31T02:20:46.824Z,0.00
2023-01-31T02:21:46.815Z,0.00
2023-01-31T02:22:46.743Z,0.00
2023-01-31T02:23:46.940Z,0.00
2023-01-31T02:24:46.671Z,0.00
2023-01-31T02:25:46.633Z,0.00
2023-01-31T02:26:46.669Z,0.00
2023-01-31T02:27:46.563Z,0.00
2023-01-31T02:28:46.512Z,0.00
2023-01-31T02:29:46.545Z,0.00
2023-01-31T02:30:46.475Z,0.00
2023-01-31T02:31:46.486Z,0.00
2023-01-31T02:32:46.408Z,0.00
2023-01-31T02:33:46.339Z,0.00
2023-01-31T02:34:46.364Z,0.00
2023-01-31T02:35:46.277Z,0.00
2023-01-31T02:36:46.212Z,0.00
2023-01-31T02:37:46.184Z,0.00
2023-01-31T02:38:46.140Z,0.00
2023-01-31T02:39:46.106Z,0.00
2023-01-31T02:40:46.122Z,0.00
2023-01-31T02:41:46.033Z,0.00
2023-01-31T02:42:45.996Z,0.00
2023-01-31T02:43:45.955Z,0.00
2023-01-31T02:44:45.920Z,0.00
2023-01-31T02:45:45.936Z,0.00
2023-01-31T02:46:45.904Z,0.00
2023-01-31T02:47:45.816Z,0.00
2023-01-31T02:48:45.782Z,0.00
2023-01-31T02:49:45.722Z,0.00
2023-01-31T02:50:45.693Z,0.00
2023-01-31T02:51:45.661Z,0.00
2023-01-31T02:52:45.677Z,0.00
2023-01-31T02:53:45.587Z,0.00
2023-01-31T02:54:45.529Z,0.00
2023-01-31T02:55:45.557Z,0.00
2023-01-31T02:56:45.460Z,0.00
2023-01-31T02:57:45.419Z,0.00
2023-01-31T02:58:45.390Z,0.00
2023-01-31T02:59:45.339Z,0.00
2023-01-31T03:00:45.634Z,0.00
2023-01-31T03:01:45.354Z,0.00
2023-01-31T03:02:45.295Z,0.00
2023-01-31T03:03:45.202Z,0.00
2023-01-31T03:04:45.152Z,0.00
2023-01-31T03:05:45.116Z,0.00
2023-01-31T03:06:45.101Z,0.00
2023-01-31T03:07:45.105Z,0.00
2023-01-31T03:08:45.009Z,0.00
2023-01-31T03:09:44.980Z,0.00
2023-01-31T03:10:44.941Z,0.00
2023-01-31T03:11:44.899Z,0.00
2023-01-31T03:12:44.845Z,0.00
2023-01-31T03:13:44.877Z,0.00
2023-01-31T03:14:44.776Z,0.00
2023-01-31T03:15:44.741Z,0.00
2023-01-31T03:16:44.759Z,0.00
2023-01-31T03:17:44.662Z,0.00
2023-01-31T03:18:44.631Z,0.00
2023-01-31T03:19:44.637Z,0.00
2023-01-31T03:20:44.554Z,0.00
2023-01-31T03:21:44.503Z,0.00
2023-01-31T03:22:44.466Z,0.00
2023-01-31T03:23:44.448Z,0.00
2023-01-31T03:24:44.397Z,0.00
2023-01-31T03:25:44.407Z,0.00
2023-01-31T03:26:44.367Z,0.00
2023-01-31T03:27:44.288Z,0.00
2023-01-31T03:28:44.264Z,0.00
2023-01-31T03:29:44.211Z,0.00
2023-01-31T03:30:44.213Z,0.00
2023-01-31T03:31:44.275Z,0.00
2023-01-31T03:32:44.101Z,0.00
2023-01-31T03:33:44.668Z,0.00
2023-01-31T03:34:44.015Z,0.00
2023-01-31T03:35:43.978Z,0.00
2023-01-31T03:36:43.949Z,0.00
2023-01-31T03:37:43.949Z,0.00
2023-01-31T03:38:43.867Z,0.00
2023-01-31T03:39:43.831Z,0.00
2023-01-31T03:40:43.806Z,0.00
2023-01-31T03:41:43.757Z,0.00
2023-01-31T03:42:43.788Z,0.00
2023-01-31T03:43:43.677Z,0.00
2023-01-31T03:44:43.653Z,0.00
2023-01-31T03:45:43.605Z,0.00
2023-01-31T03:46:43.570Z,0.00
2023-01-31T03:47:43.515Z,0.00
2023-01-31T03:48:43.571Z,0.00
2023-01-31T03:49:43.447Z,0.00
2023-01-31T03:50:43.397Z,0.00
2023-01-31T03:51:43.373Z,0.00
2023-01-31T03:52:43.324Z,0.00
2023-01-31T03:53:43.294Z,0.00
2023-01-31T03:54:43.317Z,0.00
2023-01-31T03:55:43.248Z,0.00
2023-01-31T03:56:43.185Z,0.00
2023-01-31T03:57:43.143Z,0.00
2023-01-31T03:58:43.111Z,0.00
2023-01-31T03:59:43.084Z,0.00
2023-01-31T04:00:43.082Z,0.00
2023-01-31T04:01:43.030Z,0.00
2023-01-31T04:02:42.978Z,0.00
2023-01-31T04:03:42.931Z,0.00
2023-01-31T04:04:42.881Z,0.00
2023-01-31T04:05:42.845Z,0.00
2023-01-31T04:06:42.857Z,0.00
2023-01-31T04:07:42.821Z,0.00
2023-01-31T04:08:42.724Z,0.00
2023-01-31T04:09:42.715Z,0.00
2023-01-31T04:10:42.683Z,0.00
2023-01-31T04:11:42.621Z,0.00
2023-01-31T04:12:42.648Z,0.00
2023-01-31T04:13:42.539Z,0.00
2023-01-31T04:14:42.516Z,0.00
2023-01-31T04:15:42.504Z,0.00
2023-01-31T04:16:42.416Z,0.00
2023-01-31T04:17:42.388Z,0.00
2023-01-31T04:18:42.393Z,0.00
2023-01-31T04:19:42.312Z,0.00
2023-01-31T04:20:42.276Z,0.00
2023-01-31T04:21:42.228Z,0.00
2023-01-31T04:22:42.195Z,0.00
2023-01-31T04:23:42.235Z,0.00
2023-01-31T04:24:42.112Z,0.00
2023-01-31T04:25:42.106Z,0.00
2023-01-31T04:26:42.107Z,0.00
2023-01-31T04:27:42.018Z,0.00
2023-01-31T04:28:42.036Z,0.00
2023-01-31T04:29:41.935Z,0.00
2023-01-31T04:30:41.897Z,0.00
2023-01-31T04:31:41.949Z,0.00
2023-01-31T04:32:41.817Z,0.00
2023-01-31T04:33:41.839Z,0.00
2023-01-31T04:34:41.743Z,0.00
2023-01-31T04:35:41.740Z,0.00
2023-01-31T04:36:41.678Z,0.00
2023-01-31T04:37:41.628Z,0.00
2023-01-31T04:38:41.591Z,0.00
2023-01-31T04:39:41.628Z,0.00
2023-01-31T04:40:41.525Z,0.00
2023-01-31T04:41:41.490Z,0.00
2023-01-31T04:42:41.444Z,0.00
2023-01-31T04:43:41.406Z,0.00
2023-01-31T04:44:41.374Z,0.00
2023-01-31T04:45:41.386Z,0.00
2023-01-31T04:46:41.380Z,0.00
2023-01-31T04:47:41.252Z,0.00
2023-01-31T04:48:41.215Z,0.00
2023-01-31T04:49:41.180Z,0.00
2023-01-31T04:50:41.150Z,0.00
2023-01-31T04:51:41.156Z,0.00
2023-01-31T04:52:41.064Z,0.00
2023-01-31T04:53:41.038Z,0.00
2023-01-31T04:54:41.046Z,0.00
2023-01-31T04:55:40.954Z,0.00
2023-01-31T04:56:40.934Z,0.00
2023-01-31T04:57:40.890Z,0.00
2023-01-31T04:58:40.851Z,0.00
2023-01-31T04:59:40.859Z,0.00
2023-01-31T05:00:40.796Z,0.00
2023-01-31T05:01:40.735Z,0.00
2023-01-31T05:02:40.779Z,0.00
2023-01-31T05:03:40.670Z,0.00
2023-01-31T05:04:40.676Z,0.00
2023-01-31T05:05:40.592Z,0.00
2023-01-31T05:06:40.543Z,0.00
2023-01-31T05:07:41.179Z,0.00
2023-01-31T05:08:40.475Z,0.00
2023-01-31T05:09:40.483Z,0.00
2023-01-31T05:10:40.397Z,0.00
2023-01-31T05:11:40.360Z,0.00
2023-01-31T05:12:40.334Z,0.00
2023-01-31T05:13:40.299Z,0.00
2023-01-31T05:14:40.244Z,0.00
2023-01-31T05:15:40.266Z,0.00
2023-01-31T05:16:40.195Z,0.00
2023-01-31T05:17:40.153Z,0.00
2023-01-31T05:18:40.111Z,0.00
2023-01-31T05:19:40.072Z,0.00
2023-01-31T05:20:40.082Z,0.00
2023-01-31T05:21:39.986Z,0.00
2023-01-31T05:22:39.950Z,0.00
2023-01-31T05:23:39.915Z,0.00
2023-01-31T05:24:39.871Z,0.00
2023-01-31T05:25:39.900Z,0.00
2023-01-31T05:26:39.803Z,0.00
2023-01-31T05:27:39.766Z,0.00
2023-01-31T05:28:39.743Z,0.00
2023-01-31T05:29:39.688Z,0.00
2023-01-31T05:30:39.700Z,0.00
2023-01-31T05:31:39.768Z,0.00
2023-01-31T05:32:39.660Z,0.00
2023-01-31T05:33:39.548Z,0.00
2023-01-31T05:34:39.524Z,0.00
2023-01-31T05:35:39.598Z,0.00
2023-01-31T05:36:39.423Z,0.00
2023-01-31T05:37:39.474Z,0.00
2023-01-31T05:38:39.353Z,0.00
2023-01-31T05:39:39.340Z,0.00
2023-01-31T05:40:39.286Z,0.00
2023-01-31T05:41:39.304Z,0.00
2023-01-31T05:42:39.207Z,0.00
2023-01-31T05:43:39.220Z,0.00
2023-01-31T05:44:39.157Z,0.00
2023-01-31T05:45:39.106Z,0.00
2023-01-31T05:46:39.118Z,0.00
2023-01-31T05:47:39.022Z,0.00
2023-01-31T05:48:38.980Z,0.00
2023-01-31T05:49:38.950Z,0.00
2023-01-31T05:50:38.910Z,0.00
2023-01-31T05:51:38.932Z,0.00
2023-01-31T05:52:38.833Z,0.00
2023-01-31T05:53:38.803Z,0.00
2023-01-31T05:54:38.768Z,0.00
2023-01-31T05:55:38.720Z,0.00
2023-01-31T05:56:38.740Z,0.00
2023-01-31T05:57:38.640Z,0.00
2023-01-31T05:58:38.620Z,0.00
2023-01-31T05:59:38.565Z,0.00
2023-01-31T06:00:38.543Z,0.00
2023-01-31T06:01:38.506Z,0.00
2023-01-31T06:02:38.522Z,0.00
2023-01-31T06:03:38.505Z,0.00
2023-01-31T06:04:38.397Z,0.00
2023-01-31T06:05:38.350Z,0.00
2023-01-31T06:06:38.314Z,0.00
2023-01-31T06:07:38.341Z,0.00
2023-01-31T06:08:38.244Z,0.00
2023-01-31T06:09:38.224Z,0.00
2023-01-31T06:10:38.185Z,0.00
2023-01-31T06:11:38.133Z,0.00
2023-01-31T06:12:38.197Z,0.00
2023-01-31T06:13:38.059Z,0.00
2023-01-31T06:14:38.033Z,0.00
2023-01-31T06:15:37.993Z,0.00
2023-01-31T06:16:37.958Z,0.00
2023-01-31T06:17:37.911Z,0.00
2023-01-31T06:18:37.933Z,0.00
2023-01-31T06:19:37.833Z,4.00
2023-01-31T06:20:37.795Z,0.00
2023-01-31T06:21:37.767Z,0.00
2023-01-31T06:22:37.737Z,4.00
2023-01-31T06:23:37.693Z,4.00
2023-01-31T06:24:37.705Z,8.00
2023-01-31T06:25:37.607Z,4.00
2023-01-31T06:26:37.618Z,8.00
2023-01-31T06:27:37.545Z,4.00
2023-01-31T06:28:37.554Z,8.00
2023-01-31T06:29:37.463Z,8.00
2023-01-31T06:30:37.498Z,12.00
2023-01-31T06:31:37.439Z,8.00
2023-01-31T06:32:37.348Z,8.00
2023-01-31T06:33:46.560Z,8.00
2023-01-31T06:34:37.280Z,12.00
2023-01-31T06:35:37.246Z,16.00
2023-01-31T06:36:37.206Z,20.00
2023-01-31T06:37:37.167Z,24.00
2023-01-31T06:38:37.137Z,32.00
2023-01-31T06:39:37.150Z,36.00
2023-01-31T06:40:37.054Z,40.00
2023-01-31T06:41:37.037Z,44.00
2023-01-31T06:42:36.990Z,48.00
2023-01-31T06:43:36.944Z,56.00
2023-01-31T06:44:36.929Z,60.00
2023-01-31T06:45:36.930Z,68.00
2023-01-31T06:46:36.831Z,80.00
2023-01-31T06:47:36.794Z,88.00
2023-01-31T06:48:36.778Z,96.00
2023-01-31T06:49:36.723Z,104.00
2023-01-31T06:50:36.704Z,112.00
2023-01-31T06:51:36.701Z,116.00
2023-01-31T06:52:36.604Z,136.00
2023-01-31T06:53:36.577Z,144.00
2023-01-31T06:54:36.532Z,136.00
2023-01-31T06:55:36.501Z,156.00
2023-01-31T06:56:36.474Z,160.00
2023-01-31T06:57:36.486Z,152.00
2023-01-31T06:58:36.461Z,136.00
2023-01-31T06:59:36.361Z,148.00
2023-01-31T07:00:36.316Z,168.00
2023-01-31T07:01:36.319Z,192.00
2023-01-31T07:02:36.259Z,252.00
2023-01-31T07:03:36.270Z,312.00
2023-01-31T07:04:36.192Z,352.00
2023-01-31T07:05:36.149Z,404.00
2023-01-31T07:06:36.118Z,468.00
2023-01-31T07:07:36.055Z,512.00
2023-01-31T07:08:36.398Z,552.00
2023-01-31T07:09:36.045Z,588.00
2023-01-31T07:10:35.947Z,628.00
2023-01-31T07:11:35.913Z,664.00
2023-01-31T07:12:35.877Z,668.00
2023-01-31T07:13:35.829Z,644.00
2023-01-31T07:14:35.796Z,616.00
2023-01-31T07:15:35.819Z,608.00
2023-01-31T07:16:35.728Z,576.00
2023-01-31T07:17:35.688Z,564.00
2023-01-31T07:18:35.655Z,580.00
2023-01-31T07:19:35.611Z,604.00
2023-01-31T07:20:35.575Z,612.00
2023-01-31T07:21:35.605Z,652.00
2023-01-31T07:22:35.500Z,668.00
2023-01-31T07:23:35.458Z,660.00
2023-01-31T07:24:35.424Z,648.00
2023-01-31T07:25:35.391Z,640.00
2023-01-31T07:26:35.404Z,656.00
2023-01-31T07:27:35.374Z,692.00
2023-01-31T07:28:35.287Z,680.00
2023-01-31T07:29:37.420Z,816.00
2023-01-31T07:30:35.257Z,856.00
2023-01-31T07:31:35.202Z,920.00
2023-01-31T07:32:35.132Z,968.00
2023-01-31T07:33:35.178Z,796.00
2023-01-31T07:34:35.052Z,856.00
2023-01-31T07:35:35.024Z,940.00
2023-01-31T07:36:34.990Z,1044.00
2023-01-31T07:37:34.958Z,1160.00
2023-01-31T07:38:34.913Z,1268.00
2023-01-31T07:39:34.937Z,1392.00
2023-01-31T07:40:34.832Z,1420.00
2023-01-31T07:41:34.808Z,1356.00
2023-01-31T07:42:34.795Z,1068.00
2023-01-31T07:43:34.745Z,960.00
2023-01-31T07:44:34.688Z,968.00
2023-01-31T07:45:35.160Z,968.00
2023-01-31T07:46:34.611Z,868.00
2023-01-31T07:47:34.588Z,792.00
2023-01-31T07:48:34.570Z,724.00
2023-01-31T07:49:34.511Z,740.00
2023-01-31T07:50:34.475Z,764.00
2023-01-31T07:51:34.495Z,864.00
2023-01-31T07:52:34.400Z,820.00
2023-01-31T07:53:34.375Z,804.00
2023-01-31T07:54:34.325Z,848.00
2023-01-31T07:55:34.286Z,1036.00
2023-01-31T07:56:34.268Z,1084.00
2023-01-31T07:57:34.269Z,1276.00
2023-01-31T07:58:34.259Z,1408.00
2023-01-31T07:59:34.146Z,1584.00
2023-01-31T08:00:34.113Z,2144.00
2023-01-31T08:01:34.131Z,2212.00
2023-01-31T08:02:34.025Z,1732.00
2023-01-31T08:03:34.192Z,1768.00
2023-01-31T08:04:33.985Z,2152.00
2023-01-31T08:05:33.936Z,2028.00
2023-01-31T08:06:36.769Z,1816.00
2023-01-31T08:07:33.851Z,1888.00
2023-01-31T08:08:34.292Z,2300.00
2023-01-31T08:09:33.845Z,2532.00
2023-01-31T08:10:33.744Z,2520.00
2023-01-31T08:11:33.707Z,2160.00
2023-01-31T08:12:33.673Z,2028.00
2023-01-31T08:13:33.637Z,2236.00
2023-01-31T08:14:33.882Z,2420.00
2023-01-31T08:15:33.623Z,2396.00
2023-01-31T08:16:33.525Z,2188.00
2023-01-31T08:17:33.556Z,2484.00
2023-01-31T08:18:33.441Z,2864.00
2023-01-31T08:19:33.414Z,2780.00
2023-01-31T08:20:33.382Z,2732.00
2023-01-31T08:21:33.382Z,2808.00
2023-01-31T08:22:33.306Z,3068.00
2023-01-31T08:23:33.265Z,3268.00
2023-01-31T08:24:33.230Z,3440.00
2023-01-31T08:25:33.185Z,3468.00
2023-01-31T08:26:33.206Z,3628.00
2023-01-31T08:27:33.201Z,3536.00
2023-01-31T08:28:33.083Z,3168.00
2023-01-31T08:29:33.053Z,2896.00
2023-01-31T08:30:33.060Z,2628.00
2023-01-31T08:31:33.088Z,2516.00
2023-01-31T08:32:32.993Z,2456.00
2023-01-31T08:33:32.945Z,2328.00
2023-01-31T08:34:32.939Z,2116.00
2023-01-31T08:35:32.901Z,2000.00
2023-01-31T08:36:33.050Z,2032.00
2023-01-31T08:37:32.747Z,2208.00
2023-01-31T08:38:32.771Z,2416.00
2023-01-31T08:39:32.731Z,2520.00
2023-01-31T08:40:32.722Z,2508.00
2023-01-31T08:41:32.655Z,2628.00
2023-01-31T08:42:32.760Z,2824.00
2023-01-31T08:43:39.413Z,3048.00
2023-01-31T08:44:32.712Z,3128.00
2023-01-31T08:45:32.564Z,3240.00
2023-01-31T08:46:32.555Z,3316.00
2023-01-31T08:47:32.638Z,3232.00
2023-01-31T08:48:32.551Z,3084.00
2023-01-31T08:49:32.602Z,3016.00
2023-01-31T08:50:32.859Z,2992.00
2023-01-31T08:51:32.552Z,3012.00
2023-01-31T08:52:32.202Z,3052.00
2023-01-31T08:53:32.259Z,3084.00
2023-01-31T08:54:32.527Z,3128.00
2023-01-31T08:55:32.624Z,3192.00
2023-01-31T08:56:32.486Z,3184.00
2023-01-31T08:57:32.422Z,3144.00
2023-01-31T08:58:32.301Z,3124.00
2023-01-31T08:59:32.557Z,3000.00
2023-01-31T09:00:32.447Z,2832.00
2023-01-31T09:01:32.378Z,2720.00
2023-01-31T09:02:32.405Z,2644.00
2023-01-31T09:03:32.351Z,2684.00
2023-01-31T09:04:32.388Z,2924.00
2023-01-31T09:05:31.741Z,3156.00
2023-01-31T09:06:31.732Z,3272.00
2023-01-31T09:07:31.676Z,3148.00
2023-01-31T09:08:31.636Z,3120.00
2023-01-31T09:09:31.596Z,3220.00
2023-01-31T09:10:31.623Z,3348.00
2023-01-31T09:11:31.621Z,3200.00
2023-01-31T09:12:31.495Z,2952.00
2023-01-31T09:13:31.458Z,2768.00
2023-01-31T09:14:32.373Z,2792.00
2023-01-31T09:15:31.387Z,3016.00
2023-01-31T09:16:31.479Z,3288.00
2023-01-31T09:17:31.299Z,3604.00
2023-01-31T09:18:31.262Z,3800.00
2023-01-31T09:19:31.222Z,3836.00
2023-01-31T09:20:31.196Z,3924.00
2023-01-31T09:21:31.209Z,3948.00
2023-01-31T09:22:31.222Z,3708.00
2023-01-31T09:23:31.084Z,3592.00
2023-01-31T09:24:31.050Z,3604.00
2023-01-31T09:25:44.772Z,3684.00
2023-01-31T09:26:31.099Z,3948.00
2023-01-31T09:27:31.029Z,4304.00
2023-01-31T09:28:31.026Z,4468.00
2023-01-31T09:29:30.948Z,4348.00
2023-01-31T09:30:31.014Z,4088.00
2023-01-31T09:31:31.240Z,3884.00
2023-01-31T09:32:30.888Z,3760.00
2023-01-31T09:33:31.015Z,3736.00
2023-01-31T09:34:30.883Z,3852.00
2023-01-31T09:35:30.696Z,4044.00
2023-01-31T09:36:30.610Z,4076.00
2023-01-31T09:37:30.830Z,3924.00
2023-01-31T09:38:31.073Z,3724.00
2023-01-31T09:39:30.810Z,3592.00
2023-01-31T09:40:30.866Z,3680.00
2023-01-31T09:41:30.836Z,3752.00
2023-01-31T09:42:30.830Z,3672.00
2023-01-31T09:43:30.889Z,3644.00
2023-01-31T09:44:30.697Z,3676.00
2023-01-31T09:45:30.821Z,3732.00
2023-01-31T09:46:30.847Z,3708.00
2023-01-31T09:47:30.230Z,3664.00
2023-01-31T09:48:30.699Z,3696.00
2023-01-31T09:49:30.826Z,3672.00
2023-01-31T09:50:30.617Z,3712.00
2023-01-31T09:51:30.076Z,3644.00
2023-01-31T09:52:30.094Z,3564.00
2023-01-31T09:53:30.359Z,3772.00
2023-01-31T09:54:29.976Z,3656.00
2023-01-31T09:55:29.929Z,3512.00
2023-01-31T09:56:29.904Z,3044.00
2023-01-31T09:57:29.874Z,3012.00
2023-01-31T09:58:29.879Z,3124.00
2023-01-31T09:59:29.794Z,2900.00
2023-01-31T10:00:30.444Z,3320.00
2023-01-31T10:01:29.722Z,3044.00
2023-01-31T10:02:29.824Z,2620.00
2023-01-31T10:03:29.725Z,3080.00
2023-01-31T10:04:29.676Z,3272.00
2023-01-31T10:05:29.577Z,2900.00
2023-01-31T10:06:29.544Z,2276.00
2023-01-31T10:07:29.533Z,1844.00
2023-01-31T10:08:29.609Z,2016.00
2023-01-31T10:09:29.427Z,2272.00
2023-01-31T10:10:30.245Z,2624.00
2023-01-31T10:11:29.423Z,2368.00
2023-01-31T10:12:29.447Z,2332.00
2023-01-31T10:13:29.304Z,2488.00
2023-01-31T10:14:29.390Z,2852.00
2023-01-31T10:15:29.265Z,3272.00
2023-01-31T10:16:29.260Z,3876.00
2023-01-31T10:17:29.314Z,4760.00
2023-01-31T10:18:29.271Z,5056.00
2023-01-31T10:19:29.461Z,5088.00
2023-01-31T10:20:29.221Z,5156.00
2023-01-31T10:21:29.237Z,5292.00
2023-01-31T10:22:29.167Z,5436.00
2023-01-31T10:23:29.263Z,5432.00
2023-01-31T10:24:29.269Z,5428.00
2023-01-31T10:25:29.168Z,5512.00
2023-01-31T10:26:29.409Z,5520.00
2023-01-31T10:27:29.123Z,5336.00
2023-01-31T10:28:29.088Z,5452.00
2023-01-31T10:29:29.438Z,6160.00
2023-01-31T10:30:29.055Z,6972.00
2023-01-31T10:31:29.197Z,7496.00
2023-01-31T10:32:28.997Z,7604.00
2023-01-31T10:33:28.935Z,7704.00
2023-01-31T10:34:29.066Z,8220.00
2023-01-31T10:35:28.949Z,8012.00
2023-01-31T10:36:29.030Z,7240.00
2023-01-31T10:37:28.885Z,6100.00
2023-01-31T10:38:28.827Z,5616.00
2023-01-31T10:39:28.822Z,4848.00
2023-01-31T10:40:28.953Z,4132.00
2023-01-31T10:41:28.531Z,3972.00
2023-01-31T10:42:28.243Z,4172.00
2023-01-31T10:43:28.211Z,4240.00
2023-01-31T10:44:28.182Z,4704.00
2023-01-31T10:45:28.198Z,4796.00
2023-01-31T10:46:28.110Z,5296.00
2023-01-31T10:47:28.087Z,4920.00
2023-01-31T10:48:28.035Z,5216.00
2023-01-31T10:49:28.009Z,5736.00
2023-01-31T10:50:28.630Z,6488.00
2023-01-31T10:51:27.983Z,6636.00
2023-01-31T10:52:27.893Z,6672.00
2023-01-31T10:53:27.861Z,7652.00
2023-01-31T10:54:27.826Z,8132.00
2023-01-31T10:55:27.790Z,7260.00
2023-01-31T10:56:27.748Z,6364.00
2023-01-31T10:57:27.779Z,5868.00
2023-01-31T10:58:27.697Z,4368.00
2023-01-31T10:59:27.651Z,4528.00
2023-01-31T11:00:27.623Z,5312.00
2023-01-31T11:01:27.659Z,5992.00
2023-01-31T11:02:27.616Z,5452.00
2023-01-31T11:03:27.559Z,4976.00
2023-01-31T11:04:27.514Z,5276.00
2023-01-31T11:05:27.425Z,5252.00
2023-01-31T11:06:27.410Z,5084.00
2023-01-31T11:07:27.446Z,4320.00
2023-01-31T11:08:27.334Z,3576.00
2023-01-31T11:09:27.293Z,3484.00
2023-01-31T11:10:27.278Z,3976.00
2023-01-31T11:11:27.272Z,4224.00
2023-01-31T11:12:27.193Z,4184.00
2023-01-31T11:13:27.214Z,4456.00
2023-01-31T11:14:27.121Z,4924.00
2023-01-31T11:15:27.080Z,4980.00
2023-01-31T11:16:27.096Z,5160.00
2023-01-31T11:17:27.020Z,5552.00
2023-01-31T11:18:26.984Z,5312.00
2023-01-31T11:19:26.994Z,5208.00
2023-01-31T11:20:26.906Z,5404.00
2023-01-31T11:21:26.876Z,5944.00
2023-01-31T11:22:26.835Z,6356.00
2023-01-31T11:23:26.801Z,6280.00
2023-01-31T11:24:27.837Z,5804.00
2023-01-31T11:25:26.824Z,5580.00
2023-01-31T11:26:26.737Z,5308.00
2023-01-31T11:27:26.657Z,4940.00
2023-01-31T11:28:26.631Z,4404.00
2023-01-31T11:29:26.590Z,4128.00
2023-01-31T11:30:26.616Z,3380.00
2023-01-31T11:31:26.634Z,3020.00
2023-01-31T11:32:26.487Z,2964.00
2023-01-31T11:33:26.455Z,3212.00
2023-01-31T11:34:26.418Z,2820.00
2023-01-31T11:35:26.381Z,2452.00
2023-01-31T11:36:26.343Z,2576.00
2023-01-31T11:37:26.386Z,2268.00
2023-01-31T11:38:26.268Z,2528.00
2023-01-31T11:39:26.341Z,2780.00
2023-01-31T11:40:26.208Z,2876.00
2023-01-31T11:41:26.165Z,2704.00
2023-01-31T11:42:26.126Z,2216.00
2023-01-31T11:43:26.150Z,2804.00
2023-01-31T11:44:26.049Z,2524.00
2023-01-31T11:45:26.050Z,1920.00
2023-01-31T11:46:26.037Z,1676.00
2023-01-31T11:47:25.954Z,1560.00
2023-01-31T11:48:25.984Z,1592.00
2023-01-31T11:49:25.881Z,1568.00
2023-01-31T11:50:28.091Z,1824.00
2023-01-31T11:51:25.811Z,2356.00
2023-01-31T11:52:25.774Z,2560.00
2023-01-31T11:53:25.857Z,2260.00
2023-01-31T11:54:25.700Z,2168.00
2023-01-31T11:55:25.672Z,2060.00
2023-01-31T11:56:25.631Z,2112.00
2023-01-31T11:57:25.612Z,2592.00
2023-01-31T11:58:25.626Z,2948.00
2023-01-31T11:59:25.521Z,3308.00
2023-01-31T12:00:25.491Z,2988.00
2023-01-31T12:01:25.449Z,2516.00
2023-01-31T12:02:25.435Z,2492.00
2023-01-31T12:03:25.469Z,2440.00
2023-01-31T12:04:25.402Z,2264.00
2023-01-31T12:05:25.315Z,2068.00
2023-01-31T12:06:25.272Z,2436.00
2023-01-31T12:07:25.260Z,2536.00
2023-01-31T12:08:25.275Z,2280.00
2023-01-31T12:09:25.177Z,2364.00
2023-01-31T12:10:25.148Z,2100.00
2023-01-31T12:11:25.110Z,2176.00
2023-01-31T12:12:25.108Z,2364.00
2023-01-31T12:13:25.035Z,2452.00
2023-01-31T12:14:25.079Z,2508.00
2023-01-31T12:15:24.953Z,2396.00
2023-01-31T12:16:24.970Z,2676.00
2023-01-31T12:17:24.883Z,3048.00
2023-01-31T12:18:26.917Z,3508.00
2023-01-31T12:19:24.887Z,2716.00
2023-01-31T12:20:28.474Z,2268.00
2023-01-31T12:21:24.742Z,2272.00
2023-01-31T12:22:24.705Z,2348.00
2023-01-31T12:23:24.704Z,2376.00
2023-01-31T12:24:24.689Z,2572.00
2023-01-31T12:25:24.594Z,2584.00
2023-01-31T12:26:24.625Z,3008.00
2023-01-31T12:27:24.534Z,2932.00
2023-01-31T12:28:24.489Z,2744.00
2023-01-31T12:29:24.511Z,2632.00
2023-01-31T12:30:24.472Z,2668.00
2023-01-31T12:31:24.418Z,2556.00
2023-01-31T12:32:24.358Z,2960.00
2023-01-31T12:33:24.307Z,2364.00
2023-01-31T12:34:24.328Z,2332.00
2023-01-31T12:35:24.537Z,2136.00
2023-01-31T12:36:24.278Z,1876.00
2023-01-31T12:37:24.165Z,1808.00
2023-01-31T12:38:24.132Z,1460.00
2023-01-31T12:39:24.093Z,1432.00
2023-01-31T12:40:25.564Z,1188.00
2023-01-31T12:41:24.013Z,1184.00
2023-01-31T12:42:24.017Z,1004.00
2023-01-31T12:43:23.960Z,1008.00
2023-01-31T12:44:23.926Z,1296.00
2023-01-31T12:45:23.876Z,1252.00
2023-01-31T12:46:23.970Z,1304.00
2023-01-31T12:47:23.809Z,1252.00
2023-01-31T12:48:23.765Z,1392.00
2023-01-31T12:49:23.735Z,1552.00
2023-01-31T12:50:23.692Z,1648.00
2023-01-31T12:51:23.663Z,1656.00
2023-01-31T12:52:23.691Z,1580.00
2023-01-31T12:53:23.590Z,1756.00
2023-01-31T12:54:23.544Z,1420.00
2023-01-31T12:55:23.752Z,1412.00
2023-01-31T12:56:23.486Z,1184.00
2023-01-31T12:57:23.433Z,968.00